createdAt,value
2022-10-23T00:01:18.840Z,6.57
2022-10-23T00:03:47.919Z,8.40
2022-10-23T00:06:16.370Z,6.83
2022-10-23T00:08:45.368Z,7.40
2022-10-23T00:11:17.230Z,8.10
2022-10-23T00:13:45.676Z,8.48
2022-10-23T00:16:14.283Z,7.63
2022-10-23T00:18:43.102Z,9.35
2022-10-23T00:21:13.135Z,8.25
2022-10-23T00:23:41.597Z,6.82
2022-10-23T00:26:11.288Z,5.45
2022-10-23T00:28:40.621Z,7.35
2022-10-23T00:31:08.855Z,7.88
2022-10-23T00:33:37.750Z,7.32
2022-10-23T00:36:07.376Z,8.50
2022-10-23T00:38:35.567Z,9.05
2022-10-23T00:41:03.784Z,7.30
2022-10-23T00:43:33.780Z,6.45
2022-10-23T00:48:31.025Z,7.18
2022-10-23T00:50:58.958Z,6.88
2022-10-23T00:53:27.184Z,7.68
2022-10-23T00:55:57.678Z,7.38
2022-10-23T00:58:25.816Z,6.68
2022-10-23T01:00:55.609Z,7.68
2022-10-23T01:03:28.571Z,5.97
2022-10-23T01:06:04.169Z,9.48
2022-10-23T01:08:36.933Z,8.93
2022-10-23T01:11:10.433Z,9.65
2022-10-23T01:13:45.214Z,12.27
2022-10-23T01:16:17.851Z,6.88
2022-10-23T01:18:54.420Z,7.05
2022-10-23T01:21:28.943Z,10.80
2022-10-23T01:24:26.044Z,6.78
2022-10-23T01:27:03.584Z,9.25
2022-10-23T01:29:39.507Z,6.95
2022-10-23T01:32:14.150Z,7.72
2022-10-23T01:34:48.092Z,5.15
2022-10-23T01:37:22.846Z,8.60
2022-10-23T01:39:56.370Z,8.93
2022-10-23T01:42:30.294Z,9.55
2022-10-23T01:45:04.068Z,7.75
2022-10-23T01:47:41.092Z,9.18
2022-10-23T01:50:13.064Z,10.82
2022-10-23T01:52:43.474Z,8.02
2022-10-23T01:55:14.854Z,10.95
2022-10-23T01:57:45.536Z,6.85
2022-10-23T02:00:19.088Z,7.63
2022-10-23T02:02:55.977Z,8.50
2022-10-23T02:05:40.370Z,5.78
2022-10-23T02:08:12.066Z,9.48
2022-10-23T02:10:46.440Z,9.45
2022-10-23T02:13:27.083Z,8.13
2022-10-23T02:16:10.444Z,5.75
2022-10-23T02:19:00.601Z,6.10
2022-10-23T02:21:35.168Z,8.07
2022-10-23T02:24:07.044Z,6.25
2022-10-23T02:26:42.984Z,6.97
2022-10-23T02:29:16.778Z,6.35
2022-10-23T02:31:48.687Z,9.40
2022-10-23T02:34:19.964Z,8.18
2022-10-23T02:36:48.858Z,6.20
2022-10-23T02:39:17.371Z,5.38
2022-10-23T02:42:05.356Z,5.20
2022-10-23T02:44:59.259Z,5.40
2022-10-23T02:47:39.592Z,6.90
2022-10-23T02:50:34.309Z,5.30
2022-10-23T03:06:10.081Z,6.63
2022-10-23T03:13:27.070Z,5.40
2022-10-23T03:15:58.237Z,11.32
2022-10-23T03:18:31.394Z,6.75
2022-10-23T03:21:07.777Z,6.28
2022-10-23T03:23:38.636Z,6.57
2022-10-23T03:26:10.573Z,5.90
2022-10-23T03:29:14.107Z,6.50
2022-10-23T03:32:00.143Z,6.95
2022-10-23T03:34:31.278Z,5.72
2022-10-23T03:37:12.065Z,6.90
2022-10-23T03:39:43.450Z,9.70
2022-10-23T04:19:30.785Z,5.95
2022-10-23T04:23:04.594Z,7.15
2022-10-23T04:55:27.501Z,4.50
2022-10-23T04:58:25.785Z,9.77
2022-10-23T05:00:54.285Z,9.27
2022-10-23T05:03:26.293Z,4.57
2022-10-23T05:05:56.418Z,5.25
2022-10-23T05:08:31.996Z,7.13
2022-10-23T05:11:20.230Z,4.35
2022-10-23T05:13:51.341Z,5.00
2022-10-23T05:16:32.910Z,8.00
2022-10-23T05:19:01.364Z,5.97
2022-10-23T05:21:32.843Z,5.82
2022-10-23T05:24:03.052Z,8.70
2022-10-23T05:29:04.660Z,5.10
2022-10-23T05:31:36.214Z,4.97
2022-10-23T05:34:13.927Z,4.78
2022-10-23T05:36:45.732Z,7.13
2022-10-23T05:39:17.660Z,7.88
2022-10-23T05:41:46.717Z,6.85
2022-10-23T05:44:21.015Z,7.00
2022-10-23T05:47:08.497Z,6.30
2022-10-23T05:49:58.137Z,12.48
2022-10-23T05:52:26.081Z,5.72
2022-10-23T05:55:15.847Z,6.07
2022-10-23T05:57:49.583Z,6.55
2022-10-23T06:00:22.749Z,6.50
2022-10-23T06:03:10.008Z,6.68
2022-10-23T06:05:50.587Z,9.18
2022-10-23T06:10:54.208Z,9.60
2022-10-23T06:13:22.222Z,7.38
2022-10-23T06:15:50.519Z,8.38
2022-10-23T06:18:23.753Z,10.50
2022-10-23T06:20:56.764Z,12.85
2022-10-23T06:23:27.334Z,8.85
2022-10-23T06:26:18.710Z,11.30
2022-10-23T06:29:04.962Z,10.23
2022-10-23T06:31:33.011Z,9.10
2022-10-23T06:34:01.521Z,12.10
2022-10-23T06:36:32.331Z,9.48
2022-10-23T06:39:10.105Z,11.10
2022-10-23T06:42:12.254Z,9.95
2022-10-23T06:45:07.536Z,7.38
2022-10-23T06:47:55.953Z,7.32
2022-10-23T06:50:26.984Z,7.78
2022-10-23T06:52:55.280Z,9.98
2022-10-23T06:55:23.629Z,7.68
2022-10-23T06:58:19.540Z,8.10
2022-10-23T07:01:08.533Z,7.57
2022-10-23T07:08:06.145Z,8.95
2022-10-23T07:15:55.349Z,8.50
2022-10-23T07:18:27.261Z,7.85
2022-10-23T07:21:17.049Z,9.63
2022-10-23T07:23:46.287Z,8.70
2022-10-23T07:26:17.097Z,10.60
2022-10-23T07:29:01.098Z,8.82
2022-10-23T07:31:30.923Z,9.77
2022-10-23T07:34:17.815Z,9.27
2022-10-23T07:36:49.551Z,8.00
2022-10-23T07:39:18.660Z,9.68
2022-10-23T07:41:53.071Z,8.50
2022-10-23T07:44:23.159Z,11.75
2022-10-23T07:46:56.520Z,12.07
2022-10-23T07:49:24.732Z,10.25
2022-10-23T07:51:54.084Z,10.70
2022-10-23T07:54:22.697Z,10.18
2022-10-23T07:57:12.097Z,9.30
2022-10-23T07:59:48.172Z,10.13
2022-10-23T08:02:22.548Z,10.65
2022-10-23T08:04:51.778Z,9.25
2022-10-23T08:15:19.690Z,14.88
2022-10-23T08:18:01.286Z,11.30
2022-10-23T08:20:53.593Z,11.52
2022-10-23T08:23:22.096Z,12.80
2022-10-23T08:25:51.689Z,14.80
2022-10-23T08:28:23.515Z,12.00
2022-10-23T08:30:56.582Z,12.23
2022-10-23T08:33:26.829Z,14.25
2022-10-23T08:35:55.160Z,12.05
2022-10-23T08:38:30.397Z,14.18
2022-10-23T08:41:07.935Z,13.25
2022-10-23T08:43:58.264Z,12.30
2022-10-23T08:46:39.056Z,12.10
2022-10-23T08:49:44.440Z,11.95
2022-10-23T08:54:54.213Z,12.90
2022-10-23T08:57:24.742Z,11.75
2022-10-23T08:59:58.928Z,10.35
2022-10-23T09:02:29.015Z,10.68
2022-10-23T09:04:59.975Z,10.82
2022-10-23T09:07:40.110Z,10.73
2022-10-23T09:10:26.207Z,9.35
2022-10-23T09:13:13.302Z,9.18
2022-10-23T09:15:48.541Z,12.68
2022-10-23T09:18:19.710Z,11.13
2022-10-23T09:20:50.199Z,9.32
2022-10-23T09:23:22.354Z,6.45
2022-10-23T09:25:55.590Z,6.15
2022-10-23T09:28:25.297Z,10.75
2022-10-23T09:33:26.294Z,6.88
2022-10-23T09:36:00.847Z,5.43
2022-10-23T09:38:31.759Z,7.22
2022-10-23T09:41:11.445Z,6.53
2022-10-23T09:43:39.366Z,5.68
2022-10-23T09:46:09.764Z,7.72
2022-10-23T09:48:42.241Z,4.30
2022-10-23T09:51:20.316Z,9.35
2022-10-23T09:53:51.734Z,4.97
2022-10-23T09:56:28.854Z,3.03
2022-10-23T09:58:58.719Z,4.45
2022-10-23T10:01:29.568Z,3.20
2022-10-23T10:04:12.348Z,3.88
2022-10-23T10:09:14.573Z,4.45
2022-10-23T10:11:47.278Z,4.50
2022-10-23T10:14:49.828Z,5.80
2022-10-23T10:17:25.174Z,4.68
2022-10-23T10:20:15.349Z,6.55
2022-10-23T10:22:54.557Z,4.20
2022-10-23T10:25:37.957Z,2.67
2022-10-23T10:28:21.229Z,4.85
2022-10-23T10:31:02.007Z,2.42
2022-10-23T10:33:52.532Z,3.63
2022-10-23T10:36:47.958Z,3.85
2022-10-23T10:39:42.045Z,3.05
2022-10-23T10:42:29.595Z,3.65
2022-10-23T10:45:29.069Z,4.25
2022-10-23T10:48:36.840Z,4.40
2022-10-23T11:00:03.681Z,1.73
2022-10-23T11:02:39.192Z,5.55
2022-10-23T11:05:19.236Z,4.43
2022-10-23T11:08:00.582Z,2.60
2022-10-23T11:10:29.740Z,1.83
2022-10-23T11:13:09.207Z,1.85
2022-10-23T11:15:44.032Z,2.15
2022-10-23T11:18:19.870Z,1.63
2022-10-23T11:21:00.292Z,4.93
2022-10-23T11:24:03.538Z,1.08
2022-10-23T11:26:43.937Z,4.65
2022-10-23T11:29:45.965Z,6.82
2022-10-23T11:35:25.263Z,1.88
2022-10-23T11:38:10.176Z,3.50
2022-10-23T11:40:38.171Z,2.67
2022-10-23T11:43:06.121Z,2.13
2022-10-23T11:45:36.864Z,1.50
2022-10-23T11:48:07.604Z,1.40
2022-10-23T11:50:51.143Z,7.10
2022-10-23T11:53:28.612Z,5.38
2022-10-23T11:55:59.778Z,5.95
2022-10-23T11:58:32.261Z,1.55
2022-10-23T12:01:07.292Z,2.13
2022-10-23T12:03:43.053Z,1.77
2022-10-23T12:06:24.982Z,1.77
2022-10-23T12:08:57.473Z,6.30
2022-10-23T12:11:45.334Z,3.60
2022-10-23T12:14:34.670Z,2.33
2022-10-23T12:17:03.214Z,2.20
2022-10-23T12:19:51.837Z,3.65
2022-10-23T12:22:22.434Z,3.13
2022-10-23T12:25:01.836Z,5.97
2022-10-23T12:27:40.221Z,4.53
2022-10-23T12:30:20.125Z,3.83
2022-10-23T12:35:48.781Z,2.13
2022-10-23T12:38:19.509Z,2.78
2022-10-23T12:40:53.455Z,1.80
2022-10-23T12:43:28.286Z,1.95
2022-10-23T12:45:58.493Z,2.55
2022-10-23T12:48:26.499Z,3.60
2022-10-23T12:50:57.455Z,1.95
2022-10-23T12:53:25.731Z,2.40
2022-10-23T12:58:30.139Z,3.70
2022-10-23T13:01:01.983Z,2.60
2022-10-23T13:03:32.059Z,1.75
2022-10-23T13:08:35.140Z,1.65
2022-10-23T13:11:29.589Z,3.35
2022-10-23T13:14:01.787Z,4.90
2022-10-23T13:16:29.669Z,6.75
2022-10-23T13:18:57.545Z,4.25
2022-10-23T13:21:30.158Z,3.22
2022-10-23T13:23:58.331Z,2.42
2022-10-23T13:26:32.317Z,1.85
2022-10-23T13:29:02.286Z,2.97
2022-10-23T13:31:34.259Z,1.92
2022-10-23T13:34:17.264Z,1.25
2022-10-23T13:37:00.094Z,1.88
2022-10-23T13:39:31.323Z,1.52
2022-10-23T13:42:06.935Z,2.35
2022-10-23T13:44:37.265Z,2.30
2022-10-23T13:47:05.414Z,1.20
2022-10-23T13:49:34.321Z,1.23
2022-10-23T13:52:04.916Z,1.88
2022-10-23T13:54:33.024Z,2.47
2022-10-23T13:57:01.055Z,1.85
2022-10-23T13:59:28.947Z,1.77
2022-10-23T14:01:56.855Z,3.83
2022-10-23T14:04:24.803Z,1.65
2022-10-23T14:06:58.358Z,3.75
2022-10-23T14:09:27.819Z,8.52
2022-10-23T14:11:55.776Z,1.33
2022-10-23T14:14:23.915Z,1.83
2022-10-23T14:16:52.825Z,2.42
2022-10-23T14:19:20.784Z,0.93
2022-10-23T14:21:48.691Z,1.13
2022-10-23T14:24:16.841Z,1.63
2022-10-23T14:26:46.090Z,4.38
2022-10-23T14:29:21.383Z,3.42
2022-10-23T14:31:51.286Z,1.38
2022-10-23T14:34:20.483Z,4.68
2022-10-23T14:36:50.324Z,2.65
2022-10-23T14:39:24.771Z,2.60
2022-10-23T14:41:54.066Z,2.05
2022-10-23T14:44:22.056Z,1.83
2022-10-23T14:46:49.971Z,2.28
2022-10-23T14:49:17.880Z,1.70
2022-10-23T14:51:45.781Z,1.60
2022-10-23T14:54:13.686Z,4.15
2022-10-23T14:56:41.585Z,1.85
2022-10-23T14:59:11.740Z,1.13
2022-10-23T15:01:45.116Z,3.03
2022-10-23T15:04:15.899Z,1.92
2022-10-23T15:06:45.117Z,1.25
2022-10-23T15:09:14.607Z,1.75
2022-10-23T15:11:42.791Z,2.47
2022-10-23T15:14:12.402Z,4.40
2022-10-23T15:16:42.345Z,2.05
2022-10-23T15:19:13.664Z,1.35
2022-10-23T15:21:45.488Z,2.33
2022-10-23T15:24:13.411Z,1.55
2022-10-23T15:26:43.060Z,2.17
2022-10-23T15:29:14.482Z,3.33
2022-10-23T15:31:49.824Z,2.78
2022-10-23T15:34:20.234Z,2.70
2022-10-23T15:36:48.563Z,2.65
2022-10-23T15:39:19.527Z,3.92
2022-10-23T15:41:47.726Z,6.07
2022-10-23T15:46:48.350Z,1.60
2022-10-23T15:49:16.765Z,3.22
2022-10-23T15:51:45.165Z,2.80
2022-10-23T15:54:16.583Z,2.17
2022-10-23T15:56:45.059Z,3.30
2022-10-23T15:59:13.164Z,1.95
2022-10-23T16:01:43.781Z,4.32
2022-10-23T16:04:12.026Z,4.07
2022-10-23T16:06:40.369Z,1.98
2022-10-23T16:09:10.079Z,1.77
2022-10-23T16:11:41.525Z,3.72
2022-10-23T16:14:13.073Z,2.13
2022-10-23T16:16:42.511Z,3.08
2022-10-23T16:19:12.076Z,3.67
2022-10-23T16:21:40.361Z,3.70
2022-10-23T16:24:09.717Z,2.75
2022-10-23T16:26:38.338Z,5.57
2022-10-23T16:29:09.049Z,0.88
2022-10-23T16:31:37.523Z,2.35
2022-10-23T16:34:07.085Z,3.70
2022-10-23T16:36:39.018Z,8.98
2022-10-23T16:39:33.209Z,4.45
2022-10-23T16:42:19.798Z,3.35
2022-10-23T16:45:10.144Z,5.60
2022-10-23T16:47:38.152Z,6.95
2022-10-23T16:50:08.065Z,5.60
2022-10-23T16:52:36.264Z,5.55
2022-10-23T16:55:04.332Z,2.65
2022-10-23T16:57:32.450Z,4.45
2022-10-23T17:00:00.329Z,3.92
2022-10-23T17:02:28.433Z,2.70
2022-10-23T17:05:03.762Z,3.97
2022-10-23T17:07:33.639Z,2.35
2022-10-23T17:10:01.522Z,2.45
2022-10-23T17:12:29.605Z,2.22
2022-10-23T17:14:57.581Z,6.88
2022-10-23T17:17:25.535Z,2.92
2022-10-23T17:19:53.517Z,1.65
2022-10-23T17:22:21.438Z,3.30
2022-10-23T17:24:53.903Z,4.50
2022-10-23T17:27:22.304Z,4.65
2022-10-23T17:29:50.190Z,1.58
2022-10-23T17:32:18.365Z,1.65
2022-10-23T17:34:46.600Z,3.40
2022-10-23T17:37:14.654Z,1.80
2022-10-23T17:39:42.897Z,3.88
2022-10-23T17:42:12.497Z,1.45
2022-10-23T17:44:41.558Z,3.53
2022-10-23T17:47:09.496Z,8.67
2022-10-23T17:49:38.706Z,2.67
2022-10-23T17:52:10.223Z,2.42
2022-10-23T17:54:38.132Z,2.97
2022-10-23T17:57:06.249Z,2.25
2022-10-23T17:59:35.530Z,2.63
2022-10-23T18:02:03.979Z,4.35
2022-10-23T18:04:31.919Z,1.73
2022-10-23T18:06:59.871Z,4.32
2022-10-23T18:09:28.539Z,3.70
2022-10-23T18:11:56.552Z,6.63
2022-10-23T18:14:26.248Z,5.40
2022-10-23T18:16:58.113Z,2.60
2022-10-23T18:19:26.017Z,3.63
2022-10-23T18:21:55.283Z,3.88
2022-10-23T18:24:23.737Z,3.33
2022-10-23T18:26:51.708Z,4.68
2022-10-23T18:29:20.719Z,2.45
2022-10-23T18:31:49.137Z,2.85
2022-10-23T18:34:21.213Z,3.90
2022-10-23T18:36:50.364Z,5.25
2022-10-23T18:39:22.434Z,3.00
2022-10-23T18:41:52.601Z,3.53
2022-10-23T18:44:23.438Z,5.88
2022-10-23T18:46:51.910Z,7.70
2022-10-23T18:49:21.407Z,4.05
2022-10-23T18:51:50.939Z,5.35
2022-10-23T18:54:20.022Z,3.33
2022-10-23T18:56:48.755Z,3.40
2022-10-23T18:59:19.074Z,8.02
2022-10-23T19:01:47.188Z,5.55
2022-10-23T19:04:17.668Z,5.10
2022-10-23T19:06:47.602Z,5.53
2022-10-23T19:09:16.181Z,6.53
2022-10-23T19:11:45.237Z,6.57
2022-10-23T19:14:14.670Z,7.60
2022-10-23T19:16:46.233Z,8.45
2022-10-23T19:19:20.447Z,5.75
2022-10-23T19:21:51.293Z,4.80
2022-10-23T19:24:23.235Z,7.30
2022-10-23T19:26:51.823Z,3.53
2022-10-23T19:29:22.747Z,3.72
2022-10-23T19:31:51.842Z,3.60
2022-10-23T19:34:28.681Z,9.10
2022-10-23T19:36:59.626Z,7.10
2022-10-23T19:39:27.688Z,6.35
2022-10-23T19:41:56.024Z,6.07
2022-10-23T19:44:24.100Z,5.55
2022-10-23T19:46:52.096Z,6.22
2022-10-23T19:49:20.442Z,6.90
2022-10-23T19:51:51.178Z,5.70
2022-10-23T19:54:21.576Z,5.10
2022-10-23T19:56:50.626Z,7.20
2022-10-23T19:59:19.061Z,7.23
2022-10-23T20:01:48.907Z,8.55
2022-10-23T20:04:18.585Z,9.43
2022-10-23T20:06:46.929Z,5.47
2022-10-23T20:09:14.917Z,5.13
2022-10-23T20:11:45.425Z,5.00
2022-10-23T20:14:14.066Z,3.90
2022-10-23T20:16:44.855Z,8.13
2022-10-23T20:19:15.000Z,4.68
2022-10-23T20:21:44.653Z,4.93
2022-10-23T20:24:13.850Z,6.35
2022-10-23T20:26:42.614Z,4.15
2022-10-23T20:29:12.828Z,5.30
2022-10-23T20:31:41.145Z,5.10
2022-10-23T20:34:09.348Z,8.02
2022-10-23T20:36:41.122Z,5.30
2022-10-23T20:39:14.882Z,4.25
2022-10-23T20:41:45.042Z,5.32
2022-10-23T20:46:45.215Z,7.63
2022-10-23T20:49:14.127Z,4.28
2022-10-23T20:51:43.558Z,2.97
2022-10-23T20:54:11.826Z,4.63
2022-10-23T20:56:40.467Z,3.05
2022-10-23T20:59:11.650Z,5.45
2022-10-23T21:01:42.637Z,2.63
2022-10-23T21:04:13.214Z,2.60
2022-10-23T21:06:57.701Z,7.80
2022-10-23T21:09:31.635Z,3.45
2022-10-23T21:12:00.424Z,3.10
2022-10-23T21:14:28.626Z,2.03
2022-10-23T21:16:58.027Z,3.53
2022-10-23T21:19:25.936Z,4.55
2022-10-23T21:21:53.937Z,5.32
2022-10-23T21:24:21.925Z,3.03
2022-10-23T21:26:50.125Z,3.22
2022-10-23T21:29:19.814Z,5.15
2022-10-23T21:31:53.008Z,2.25
2022-10-23T21:34:22.565Z,2.85
2022-10-23T21:39:38.758Z,2.58
2022-10-23T21:42:06.904Z,2.42
2022-10-23T21:44:34.906Z,3.80
2022-10-23T21:47:05.226Z,1.45
2022-10-23T21:49:34.750Z,2.80
2022-10-23T21:52:02.985Z,3.72
2022-10-23T21:54:30.953Z,1.33
2022-10-23T21:56:58.956Z,1.67
2022-10-23T21:59:30.267Z,1.13
2022-10-23T22:02:00.659Z,2.05
2022-10-23T22:04:28.716Z,2.08
2022-10-23T22:06:58.115Z,1.30
2022-10-23T22:09:26.316Z,3.42
2022-10-23T22:11:54.720Z,3.55
2022-10-23T22:14:23.220Z,3.33
2022-10-23T22:16:52.248Z,4.93
2022-10-23T22:19:23.325Z,2.67
2022-10-23T22:21:52.383Z,2.67
2022-10-23T22:24:22.040Z,3.03
2022-10-23T22:26:53.598Z,3.75
2022-10-23T22:29:24.202Z,3.97
2022-10-23T22:31:52.983Z,2.72
2022-10-23T22:37:12.082Z,2.92
2022-10-23T22:39:43.067Z,2.70
2022-10-23T22:42:12.608Z,2.22
2022-10-23T22:44:40.644Z,3.30
2022-10-23T22:47:08.596Z,2.33
2022-10-23T22:49:36.645Z,2.55
2022-10-23T22:52:04.640Z,4.07
2022-10-23T22:54:32.918Z,3.53
2022-10-23T22:57:02.301Z,1.67
2022-10-23T22:59:30.343Z,2.72
2022-10-23T23:01:58.325Z,2.22
2022-10-23T23:04:42.537Z,5.35
2022-10-23T23:07:13.111Z,1.83
2022-10-23T23:09:42.590Z,1.70
2022-10-23T23:12:14.432Z,8.00
2022-10-23T23:14:42.987Z,4.13
2022-10-23T23:17:11.384Z,5.50
2022-10-23T23:19:39.978Z,4.03
2022-10-23T23:22:07.919Z,6.15
2022-10-23T23:24:35.950Z,2.55
2022-10-23T23:27:03.923Z,6.85
2022-10-23T23:29:33.393Z,3.40
2022-10-23T23:32:01.467Z,3.70
2022-10-23T23:34:29.855Z,3.60
2022-10-23T23:36:57.867Z,5.70
2022-10-23T23:39:26.337Z,4.32
2022-10-23T23:41:54.377Z,5.15
2022-10-23T23:44:22.346Z,3.90
2022-10-23T23:46:51.714Z,5.03
2022-10-23T23:49:19.629Z,4.32
2022-10-23T23:51:49.196Z,6.80
2022-10-23T23:54:17.357Z,6.03
2022-10-23T23:56:45.271Z,5.03
